Time;durP1;ratioP1;P1;durP2;ratioP2;P2;SDS_P1;SDS_P2;PMS_P1;PMS_P2;Temp;Humidity;BMP_temperature;BMP_pressure;BME280_temperature;BME280_humidity;BME280_pressure;Samples;Min_cycle;Max_cycle;Signal;HPM_P1;HPM_P2
2021/01/15 00:01:10;;;;;;;18.55;12.27;;;;;;;4.54;61.05;100804.00;5053702;28;20045;-61
2021/01/15 00:03:38;;;;;;;19.88;13.25;;;;;;;4.55;61.32;100806.47;5054024;28;20064;-62
2021/01/15 00:06:06;;;;;;;19.27;12.65;;;;;;;4.57;60.20;100811.75;5053700;28;20049;-62
2021/01/15 00:08:35;;;;;;;17.55;11.68;;;;;;;4.55;60.49;100814.75;5053328;28;20397;-62
2021/01/15 00:11:02;;;;;;;16.27;11.25;;;;;;;4.53;60.23;100808.69;5055164;28;20056;-62
2021/01/15 00:13:28;;;;;;;15.45;10.75;;;;;;;4.50;60.14;100809.22;5053859;28;20060;-62
2021/01/15 00:15:55;;;;;;;16.83;12.63;;;;;;;4.53;59.85;100810.63;5054087;28;20053;-62
2021/01/15 00:18:22;;;;;;;19.45;11.27;;;;;;;4.50;59.92;100805.63;5053773;28;20056;-62
2021/01/15 00:20:49;;;;;;;15.98;11.55;;;;;;;4.52;59.86;100811.72;5053724;28;20417;-62
2021/01/15 00:23:16;;;;;;;17.42;12.38;;;;;;;4.49;60.11;100815.81;5053392;28;20060;-61
2021/01/15 00:25:44;;;;;;;13.70;10.00;;;;;;;4.50;59.36;100811.16;5054963;28;20053;-61
2021/01/15 00:28:11;;;;;;;14.00;9.85;;;;;;;4.47;59.08;100810.59;5053609;28;20052;-62
2021/01/15 00:30:38;;;;;;;16.50;10.32;;;;;;;4.50;59.28;100811.16;5052980;28;20068;-61
2021/01/15 00:33:05;;;;;;;12.70;9.18;;;;;;;4.43;58.60;100809.47;5053325;28;20501;-62
2021/01/15 00:35:33;;;;;;;15.40;9.20;;;;;;;4.43;58.72;100816.88;5053094;28;20398;-62
2021/01/15 00:37:59;;;;;;;12.27;8.70;;;;;;;4.45;58.34;100814.69;5053369;28;20052;-62
2021/01/15 00:40:26;;;;;;;13.18;8.73;;;;;;;4.47;58.80;100816.09;5066522;28;20044;-62
2021/01/15 00:42:54;;;;;;;11.52;8.13;;;;;;;4.46;58.09;100819.13;5072667;28;20067;-62
2021/01/15 00:45:21;;;;;;;13.38;8.80;;;;;;;4.47;58.07;100815.25;5073059;28;20060;-62
2021/01/15 00:47:48;;;;;;;10.27;7.85;;;;;;;4.48;58.05;100816.94;5072452;28;20056;-62
2021/01/15 00:50:15;;;;;;;10.32;7.90;;;;;;;4.50;57.08;100819.44;5072986;28;20489;-62
2021/01/15 00:52:42;;;;;;;11.48;7.80;;;;;;;4.47;56.88;100821.63;5072613;28;20056;-62
2021/01/15 00:55:12;;;;;;;12.70;8.57;;;;;;;4.45;56.69;100818.31;5068881;28;20083;-62
2021/01/15 00:57:41;;;;;;;12.98;8.35;;;;;;;4.44;56.61;100821.31;5053112;28;20071;-62
2021/01/15 01:00:11;;;;;;;12.65;8.27;;;;;;;4.38;56.99;100825.13;5072673;28;20413;-61
2021/01/15 01:02:38;;;;;;;10.60;7.85;;;;;;;4.38;57.31;100814.91;5073522;28;20057;-62
2021/01/15 01:05:11;;;;;;;8.82;6.80;;;;;;;4.39;56.65;100824.03;5072506;28;20497;-62
2021/01/15 01:07:43;;;;;;;8.77;6.75;;;;;;;4.39;56.45;100827.63;5072728;28;20052;-62
2021/01/15 01:10:11;;;;;;;12.05;6.95;;;;;;;4.39;56.37;100829.53;5072259;28;20071;-62
2021/01/15 01:12:41;;;;;;;11.45;7.95;;;;;;;4.39;57.05;100827.63;5072158;28;20049;-62
2021/01/15 01:15:12;;;;;;;10.20;7.10;;;;;;;4.38;56.13;100823.19;5053911;28;20053;-62
2021/01/15 01:17:39;;;;;;;10.85;7.50;;;;;;;4.36;56.21;100843.88;5051693;28;20071;-62
2021/01/15 01:20:09;;;;;;;9.02;6.95;;;;;;;4.34;55.64;100844.13;5052417;28;20053;-62
2021/01/15 01:22:38;;;;;;;10.77;7.35;;;;;;;4.36;56.11;100843.88;5052432;28;20057;-62
2021/01/15 01:25:07;;;;;;;9.87;7.20;;;;;;;4.32;55.72;100851.00;5053736;28;20057;-62
2021/01/15 01:27:34;;;;;;;10.82;6.95;;;;;;;4.31;55.75;100858.44;5052947;28;20555;-62
2021/01/15 01:30:03;;;;;;;8.55;6.53;;;;;;;4.32;55.28;100862.03;5052067;28;20406;-62
2021/01/15 01:32:31;;;;;;;9.37;6.80;;;;;;;4.32;55.53;100864.78;5052248;28;20052;-62
2021/01/15 01:34:57;;;;;;;8.70;6.55;;;;;;;4.33;56.58;100864.53;5052196;28;20793;-62
2021/01/15 01:37:24;;;;;;;9.18;6.93;;;;;;;4.34;55.55;100863.44;5052235;28;20056;-62
2021/01/15 01:39:51;;;;;;;9.73;6.78;;;;;;;4.32;55.48;100865.63;5062211;28;20048;-62
2021/01/15 01:42:20;;;;;;;9.02;6.80;;;;;;;4.34;55.43;100865.34;5071878;28;20071;-61
2021/01/15 01:44:47;;;;;;;8.23;6.40;;;;;;;4.34;54.93;100866.19;5059101;28;20068;-62
2021/01/15 01:47:14;;;;;;;8.98;6.80;;;;;;;4.32;54.47;100873.88;5052735;28;20060;-61
2021/01/15 01:49:44;;;;;;;9.93;6.90;;;;;;;4.31;54.75;100875.00;5052506;28;20075;-62
2021/01/15 01:52:11;;;;;;;;;;;;;;;4.32;54.51;100881.34;5052954;28;20061;-62
2021/01/15 01:54:39;;;;;;;11.52;6.57;;;;;;;4.26;54.43;100878.53;5052620;28;19927;-62
2021/01/15 01:57:07;;;;;;;10.90;7.60;;;;;;;4.26;54.27;100883.19;5052240;28;20057;-62
2021/01/15 01:59:36;;;;;;;10.45;7.10;;;;;;;4.24;54.20;100886.25;5053350;28;20060;-62
2021/01/15 02:02:04;;;;;;;10.18;6.72;;;;;;;4.26;54.31;100894.22;5051888;28;20053;-62
2021/01/15 02:04:31;;;;;;;10.10;6.90;;;;;;;4.24;53.99;100890.91;5052069;28;20060;-62
2021/01/15 02:07:01;;;;;;;11.13;6.65;;;;;;;4.25;53.58;100892.59;5055654;28;20055;-62
2021/01/15 02:09:41;;;;;;;8.77;6.90;;;;;;;4.25;53.53;100889.81;5055525;28;20056;-62
2021/01/15 02:12:20;;;;;;;10.07;6.78;;;;;;;4.25;53.83;100890.66;5056143;28;20053;-62
2021/01/15 02:14:59;;;;;;;9.40;7.03;;;;;;;4.25;53.91;100896.16;5055738;28;20528;-62
2021/01/15 02:17:32;;;;;;;9.10;6.90;;;;;;;4.25;53.54;100896.16;5056735;28;20057;-62
2021/01/15 02:20:17;;;;;;;9.48;7.10;;;;;;;4.25;54.01;100900.84;5055822;28;20397;-62
2021/01/15 02:22:54;;;;;;;9.70;6.80;;;;;;;4.25;54.16;100903.63;5055765;28;20052;-62
2021/01/15 02:25:53;;;;;;;10.65;7.38;;;;;;;4.22;53.18;100906.88;5056279;28;20057;-62
2021/01/15 02:28:34;;;;;;;9.43;6.75;;;;;;;4.19;53.96;100901.91;5055374;28;20409;-62
2021/01/15 02:31:18;;;;;;;9.95;7.57;;;;;;;4.19;54.26;100915.69;5055339;28;20060;-62
2021/01/15 02:34:08;;;;;;;9.40;7.15;;;;;;;4.18;54.61;100916.75;5055463;28;20466;-62
2021/01/15 02:36:42;;;;;;;9.80;7.13;;;;;;;4.17;54.24;100913.19;5055196;28;20064;-62
2021/01/15 02:39:21;;;;;;;11.45;7.82;;;;;;;4.18;54.11;100912.09;5063311;28;20071;-62
2021/01/15 02:41:48;;;;;;;10.98;7.10;;;;;;;4.14;54.86;100919.22;5065322;28;20486;-61
2021/01/15 02:44:17;;;;;;;10.52;7.32;;;;;;;4.18;54.76;100917.63;5055520;28;20410;-62
2021/01/15 02:46:53;;;;;;;8.45;6.50;;;;;;;4.20;53.89;100918.19;5055248;28;20057;-61
2021/01/15 02:49:21;;;;;;;11.60;7.55;;;;;;;4.16;54.81;100914.28;5055066;28;20056;-62
2021/01/15 02:51:51;;;;;;;11.30;7.47;;;;;;;4.16;54.60;100921.72;5054699;28;20061;-62
2021/01/15 02:54:21;;;;;;;9.88;7.38;;;;;;;4.16;54.72;100917.06;5055031;28;20057;-61
2021/01/15 02:56:48;;;;;;;11.38;8.40;;;;;;;4.18;54.78;100925.03;5055210;28;20061;-62
2021/01/15 02:59:16;;;;;;;11.98;8.05;;;;;;;4.17;54.75;100935.25;5055850;28;20049;-62
2021/01/15 03:01:51;;;;;;;9.80;7.35;;;;;;;4.21;55.00;100943.84;5054374;28;20394;-62
2021/01/15 03:04:30;;;;;;;18.20;8.43;;;;;;;4.21;54.77;100943.84;5054850;28;20068;-62
2021/01/15 03:07:00;;;;;;;10.50;7.75;;;;;;;4.21;54.96;100952.94;5054573;28;20116;-62
2021/01/15 03:09:30;;;;;;;14.07;8.85;;;;;;;4.21;55.18;100952.94;5054697;28;20482;-62
2021/01/15 03:11:59;;;;;;;11.40;8.32;;;;;;;4.22;55.36;100957.38;5055202;28;20060;-62
2021/01/15 03:14:28;;;;;;;11.60;8.73;;;;;;;4.23;55.36;100967.28;5055244;28;20162;-62
2021/01/15 03:16:56;;;;;;;11.82;8.75;;;;;;;4.17;55.85;100962.81;5054366;28;20057;-61
2021/01/15 03:19:23;;;;;;;11.45;8.70;;;;;;;4.21;55.49;100965.88;5054540;28;20056;-62
2021/01/15 03:21:53;;;;;;;13.48;8.82;;;;;;;4.23;56.02;100963.72;5054160;28;20048;-62
2021/01/15 03:24:20;;;;;;;;;;;;;;;4.21;55.94;100969.47;5055229;28;20063;-62
2021/01/15 03:26:47;;;;;;;12.35;8.80;;;;;;;4.21;56.29;100979.69;5062854;28;19927;-62
2021/01/15 03:29:14;;;;;;;15.50;9.50;;;;;;;4.20;56.19;100969.72;5073591;28;20048;-62
2021/01/15 03:31:42;;;;;;;17.20;10.32;;;;;;;4.24;56.51;100976.38;5074355;28;20067;-62
2021/01/15 03:34:11;;;;;;;13.07;9.93;;;;;;;4.20;56.70;100983.50;5073355;28;20048;-61
2021/01/15 03:36:38;;;;;;;14.90;10.05;;;;;;;4.19;56.91;100979.94;5053918;28;20053;-62
2021/01/15 03:39:08;;;;;;;15.18;10.75;;;;;;;4.20;58.06;100983.50;5056982;28;20372;-62
2021/01/15 03:41:35;;;;;;;14.57;10.35;;;;;;;4.13;58.20;100980.97;5073547;28;20063;-62
2021/01/15 03:44:02;;;;;;;15.55;10.80;;;;;;;4.16;57.85;100990.63;5073803;28;20048;-62
2021/01/15 03:46:29;;;;;;;15.55;11.18;;;;;;;4.16;57.93;100988.72;5069182;28;20053;-62
2021/01/15 03:48:56;;;;;;;18.95;11.63;;;;;;;4.16;58.48;101002.50;5053512;28;20049;-62
2021/01/15 03:51:23;;;;;;;16.17;11.55;;;;;;;4.17;58.70;100993.13;5053611;28;20049;-62
2021/01/15 03:53:50;;;;;;;18.73;12.77;;;;;;;4.15;59.34;100995.31;5054237;28;20413;-61
2021/01/15 03:56:18;;;;;;;19.95;12.80;;;;;;;4.16;59.69;100993.38;5053231;28;20493;-61
2021/01/15 03:58:45;;;;;;;18.27;12.30;;;;;;;4.15;60.33;100994.50;5054130;28;20057;-62
2021/01/15 04:01:12;;;;;;;19.73;13.20;;;;;;;4.14;60.40;100999.19;5053412;28;20055;-62
2021/01/15 04:03:39;;;;;;;20.00;13.63;;;;;;;4.13;60.99;100996.69;5053405;28;20053;-62
2021/01/15 04:06:06;;;;;;;21.15;13.52;;;;;;;4.09;61.16;101003.78;5053033;28;20405;-60
2021/01/15 04:08:33;;;;;;;20.85;13.82;;;;;;;4.12;60.85;101004.13;5053458;28;20421;-62
2021/01/15 04:11:00;;;;;;;22.33;14.65;;;;;;;4.07;61.17;101007.66;5053195;28;20155;-62
2021/01/15 04:13:28;;;;;;;23.05;14.90;;;;;;;4.06;61.14;101005.97;5053600;28;20061;-62
2021/01/15 04:15:55;;;;;;;20.65;14.50;;;;;;;4.06;61.40;101003.22;5055129;28;20090;-62
2021/01/15 04:18:22;;;;;;;19.95;13.98;;;;;;;4.10;61.49;101011.00;5073563;28;20060;-62
2021/01/15 04:20:48;;;;;;;21.15;14.10;;;;;;;4.11;62.04;101007.13;5072929;28;20048;-62
2021/01/15 04:23:15;;;;;;;21.60;14.48;;;;;;;4.12;61.52;101006.06;5072248;28;20053;-58
2021/01/15 04:25:42;;;;;;;21.85;14.68;;;;;;;4.13;62.36;101014.03;5053729;28;20060;-62
2021/01/15 04:28:09;;;;;;;23.15;14.52;;;;;;;4.11;61.63;101024.50;5053291;28;20057;-61
2021/01/15 04:30:37;;;;;;;19.52;13.93;;;;;;;4.14;61.50;101024.00;5053101;28;20450;-61
2021/01/15 04:33:04;;;;;;;22.95;15.02;;;;;;;4.18;61.81;101021.53;5052653;28;20053;-61
2021/01/15 04:35:31;;;;;;;25.33;17.23;;;;;;;4.16;62.81;101029.22;5052634;28;20049;-62
2021/01/15 04:37:58;;;;;;;24.52;15.48;;;;;;;4.18;62.24;101033.41;5053093;28;20421;-62
2021/01/15 04:40:25;;;;;;;23.80;13.57;;;;;;;4.17;62.08;101033.66;5066660;28;20048;-61
2021/01/15 04:43:02;;;;;;;24.58;16.00;;;;;;;4.17;62.02;101033.66;5072301;28;20052;-59
2021/01/15 04:45:29;;;;;;;20.52;14.93;;;;;;;4.10;61.92;101036.63;5072628;28;20433;-61
2021/01/15 04:47:58;;;;;;;23.27;15.55;;;;;;;4.13;62.27;101041.63;5073010;28;20060;-61
2021/01/15 04:50:25;;;;;;;24.63;15.07;;;;;;;4.15;62.57;101046.88;5072794;28;20060;-61
2021/01/15 04:52:53;;;;;;;22.20;14.73;;;;;;;4.12;62.25;101044.66;5072578;28;20045;-61
2021/01/15 04:55:22;;;;;;;24.73;16.15;;;;;;;4.11;62.42;101042.97;5072052;28;20048;-62
2021/01/15 04:57:51;;;;;;;25.52;15.98;;;;;;;4.12;62.42;101044.66;5056518;28;20131;-61
2021/01/15 05:00:22;;;;;;;21.67;15.80;;;;;;;4.06;61.95;101052.84;5072271;28;20059;-61
2021/01/15 05:02:50;;;;;;;24.67;16.15;;;;;;;4.05;61.98;101048.44;5073191;28;20048;-61
2021/01/15 05:05:23;;;;;;;22.33;15.07;;;;;;;4.11;62.42;101059.50;5072384;28;20056;-62
2021/01/15 05:08:15;;;;;;;22.20;15.60;;;;;;;4.13;62.55;101052.63;5072660;28;20048;-62
2021/01/15 05:10:43;;;;;;;21.98;15.18;;;;;;;4.16;61.53;101060.41;5072261;28;20048;-61
2021/01/15 05:13:12;;;;;;;23.77;16.15;;;;;;;4.17;62.33;101059.31;5066535;28;20044;-61
2021/01/15 05:15:42;;;;;;;23.27;15.55;;;;;;;4.19;61.68;101065.41;5052635;28;20060;-61
2021/01/15 05:18:09;;;;;;;;;;;;;;;4.19;62.55;101067.31;5052870;28;20060;-62
2021/01/15 05:20:39;;;;;;;22.63;15.05;;;;;;;4.16;61.95;101067.81;5052321;28;19944;-60
2021/01/15 05:23:07;;;;;;;24.27;16.35;;;;;;;4.18;61.32;101079.44;5052021;28;20045;-61
2021/01/15 05:25:36;;;;;;;23.38;15.70;;;;;;;4.16;61.72;101078.84;5070978;28;20508;-62
2021/01/15 05:28:03;;;;;;;25.63;16.63;;;;;;;4.17;62.22;101080.53;5072211;28;20060;-62
2021/01/15 05:30:31;;;;;;;25.25;16.85;;;;;;;4.18;62.05;101087.69;5071822;28;20497;-60
2021/01/15 05:32:59;;;;;;;27.15;17.50;;;;;;;4.16;62.07;101085.22;5072110;28;20056;-61
2021/01/15 05:35:42;;;;;;;25.50;17.40;;;;;;;4.19;62.10;101086.63;5071816;28;20060;-61
2021/01/15 05:38:11;;;;;;;26.38;17.25;;;;;;;4.19;61.82;101089.38;5070562;28;20063;-62
2021/01/15 05:40:40;;;;;;;24.67;16.35;;;;;;;4.16;61.93;101096.25;5069363;28;20251;-59
2021/01/15 05:43:17;;;;;;;25.52;17.98;;;;;;;4.18;62.03;101098.72;5076102;28;20412;-61
2021/01/15 05:46:08;;;;;;;26.85;16.98;;;;;;;4.15;61.62;101100.09;5076090;28;20056;-61
2021/01/15 05:48:36;;;;;;;24.70;15.73;;;;;;;4.13;61.88;101102.25;5075355;28;20052;-59
2021/01/15 05:51:04;;;;;;;27.70;17.45;;;;;;;4.09;61.35;101103.88;5075890;28;20052;-61
2021/01/15 05:53:42;;;;;;;27.15;17.83;;;;;;;4.10;61.20;101101.97;5076049;28;20477;-61
2021/01/15 05:56:09;;;;;;;26.27;17.90;;;;;;;4.06;61.58;101107.16;5075155;28;20061;-61
2021/01/15 05:58:36;;;;;;;23.33;15.57;;;;;;;4.07;61.63;101109.66;5057027;28;20420;-60
2021/01/15 06:01:03;;;;;;;24.80;17.25;;;;;;;4.04;61.69;101110.16;5061917;28;20409;-61
2021/01/15 06:03:30;;;;;;;24.50;16.00;;;;;;;4.04;61.82;101121.16;5075906;28;20512;-61
2021/01/15 06:05:59;;;;;;;25.50;16.60;;;;;;;3.98;61.56;101115.84;5075749;28;20485;-61
2021/01/15 06:08:42;;;;;;;25.35;16.55;;;;;;;3.94;61.39;101123.78;5075429;28;20048;-61
2021/01/15 06:11:21;;;;;;;27.33;17.40;;;;;;;3.96;61.83;101124.38;5067417;28;20049;-62
2021/01/15 06:13:48;;;;;;;25.92;16.70;;;;;;;3.95;61.59;101125.47;5055890;28;20048;-62
2021/01/15 06:16:18;;;;;;;26.10;17.23;;;;;;;3.96;62.00;101124.38;5057486;28;20045;-61
2021/01/15 06:18:57;;;;;;;23.63;16.63;;;;;;;3.94;61.93;101122.97;5068957;28;20508;-60
2021/01/15 06:21:30;;;;;;;27.45;15.93;;;;;;;3.94;61.74;101120.19;5075033;28;20048;-61
2021/01/15 06:24:03;;;;;;;24.63;16.83;;;;;;;3.94;62.18;101125.72;5071983;28;20470;-60
2021/01/15 06:26:34;;;;;;;25.73;16.35;;;;;;;3.93;61.85;101133.16;5074740;28;20079;-60
2021/01/15 06:29:09;;;;;;;27.40;16.63;;;;;;;3.95;62.04;101130.97;5074843;28;20515;-61
2021/01/15 06:31:48;;;;;;;27.52;17.13;;;;;;;3.94;61.73;101136.75;5074507;28;20046;-60
2021/01/15 06:34:17;;;;;;;27.97;19.43;;;;;;;3.86;62.39;101135.25;5070905;28;20478;-61
2021/01/15 06:36:52;;;;;;;29.25;18.30;;;;;;;3.88;62.20;101127.56;5075145;28;20056;-61
2021/01/15 06:39:21;;;;;;;29.52;17.92;;;;;;;3.89;62.09;101134.75;5074521;28;20049;-60
2021/01/15 06:42:01;;;;;;;32.47;18.95;;;;;;;3.88;62.41;101132.25;5074156;28;20138;-61
2021/01/15 06:44:28;;;;;;;27.58;17.30;;;;;;;3.86;62.45;101140.75;5064879;28;20041;-61
2021/01/15 06:46:55;;;;;;;29.38;18.15;;;;;;;3.86;62.70;101143.50;5066071;28;20063;-58
2021/01/15 06:49:30;;;;;;;29.75;18.02;;;;;;;3.90;62.33;101138.34;5074794;28;20064;-61
2021/01/15 06:51:59;;;;;;;29.15;17.50;;;;;;;3.82;62.38;101137.69;5055413;28;20493;-60
2021/01/15 06:54:34;;;;;;;29.65;18.50;;;;;;;3.78;62.62;101146.69;5055365;28;20056;-60
2021/01/15 06:57:14;;;;;;;26.85;17.83;;;;;;;3.81;62.83;101144.28;5054050;28;20061;-60
2021/01/15 06:59:41;;;;;;;;;;;;;;;3.82;62.22;101147.84;5054859;28;20060;-61
2021/01/15 07:02:12;;;;;;;30.52;18.50;;;;;;;3.80;62.41;101152.78;5055505;28;19920;-60
2021/01/15 07:04:53;;;;;;;30.45;18.83;;;;;;;3.79;63.06;101149.19;5072807;28;20063;-61
2021/01/15 07:07:21;;;;;;;30.98;18.65;;;;;;;3.81;62.98;101157.22;5073380;28;20048;-61
2021/01/15 07:09:48;;;;;;;30.80;18.80;;;;;;;3.76;63.24;101152.47;5071423;28;20409;-61
2021/01/15 07:12:17;;;;;;;35.10;20.42;;;;;;;3.78;63.32;101150.31;5059113;28;20043;-62
2021/01/15 07:14:47;;;;;;;33.13;20.25;;;;;;;3.83;63.19;101158.63;5061163;28;20044;-62
2021/01/15 07:17:16;;;;;;;31.67;19.88;;;;;;;3.85;63.04;101161.16;5053142;28;20049;-61
2021/01/15 07:19:44;;;;;;;32.88;20.83;;;;;;;3.89;62.77;101162.31;5053192;28;20072;-60
2021/01/15 07:22:13;;;;;;;34.35;20.33;;;;;;;3.90;62.60;101163.13;5071107;28;20059;-61
2021/01/15 07:24:44;;;;;;;30.90;19.42;;;;;;;3.93;62.54;101165.41;5061426;28;20048;-62
2021/01/15 07:27:13;;;;;;;31.63;19.55;;;;;;;3.95;62.27;101174.22;5053291;28;20057;-67
2021/01/15 07:29:47;;;;;;;34.85;19.95;;;;;;;3.86;63.28;101187.59;5065189;28;20048;-66
2021/01/15 07:32:20;;;;;;;31.35;19.00;;;;;;;3.94;62.98;101191.88;5062259;28;20060;-66
2021/01/15 07:34:52;;;;;;;34.80;20.65;;;;;;;3.95;63.04;101188.88;5064398;28;20064;-66
2021/01/15 07:37:21;;;;;;;33.90;20.48;;;;;;;3.94;63.53;101191.88;5067375;28;20600;-66
2021/01/15 07:40:02;;;;;;;31.73;19.17;;;;;;;4.02;62.74;101199.72;5068173;28;20057;-66
2021/01/15 07:42:44;;;;;;;33.55;20.25;;;;;;;4.03;62.51;101202.22;5064927;28;20068;-66
2021/01/15 07:45:52;;;;;;;31.00;20.17;;;;;;;4.04;62.94;101198.34;5071951;28;20063;-65
2021/01/15 07:48:20;;;;;;;30.65;19.83;;;;;;;4.10;62.41;101206.72;5060557;28;20083;-65
2021/01/15 07:50:49;;;;;;;31.25;19.42;;;;;;;4.09;62.47;101211.38;5071237;28;20060;-65
2021/01/15 07:53:28;;;;;;;30.13;19.02;;;;;;;4.12;62.36;101218.34;5071178;28;20055;-66
2021/01/15 07:55:57;;;;;;;31.17;20.48;;;;;;;4.12;62.67;101221.09;5041866;28;803799;-65
2021/01/15 07:58:26;;;;;;;31.60;19.70;;;;;;;4.15;62.58;101221.41;5070555;28;20048;-66
2021/01/15 08:00:56;;;;;;;33.53;21.40;;;;;;;4.09;62.71;101222.41;5070127;28;20045;-66
2021/01/15 08:03:23;;;;;;;30.65;21.45;;;;;;;4.10;62.41;101217.75;5060638;28;20052;-66
2021/01/15 08:05:57;;;;;;;32.55;19.77;;;;;;;4.14;62.47;101222.50;5070937;28;20055;-66
2021/01/15 08:08:24;;;;;;;28.58;18.50;;;;;;;4.15;62.04;101232.41;5061898;28;20052;-66
2021/01/15 08:10:51;;;;;;;27.08;19.02;;;;;;;4.15;62.40;101231.59;5070266;28;20079;-66
2021/01/15 08:13:27;;;;;;;29.73;19.48;;;;;;;4.14;62.55;101232.69;5069585;28;20052;-66
2021/01/15 08:15:55;;;;;;;28.83;19.17;;;;;;;4.12;62.37;101238.47;5071694;28;20056;-66
2021/01/15 08:18:24;;;;;;;29.50;20.67;;;;;;;4.10;62.59;101239.81;5068348;28;20048;-66
2021/01/15 08:20:53;;;;;;;31.35;21.02;;;;;;;4.12;63.02;101243.16;5071793;28;20048;-66
2021/01/15 08:23:23;;;;;;;29.25;18.92;;;;;;;4.15;62.92;101248.13;5069777;28;20083;-66
2021/01/15 08:25:51;;;;;;;27.90;18.35;;;;;;;4.15;62.68;101250.91;5071209;28;20060;-66
2021/01/15 08:28:21;;;;;;;26.25;17.60;;;;;;;4.17;62.38;101259.75;5070748;28;20045;-66
2021/01/15 08:31:06;;;;;;;31.95;20.05;;;;;;;4.22;62.57;101260.69;5071399;28;20056;-66
2021/01/15 08:33:34;;;;;;;30.50;19.35;;;;;;;4.21;62.32;101259.00;5069172;28;20057;-66
2021/01/15 08:36:03;;;;;;;29.48;19.25;;;;;;;4.15;61.97;101264.69;5069180;28;20052;-65
2021/01/15 08:38:35;;;;;;;29.45;19.85;;;;;;;4.19;62.42;101268.59;5062221;28;20056;-66
2021/01/15 08:41:13;;;;;;;31.20;19.17;;;;;;;4.22;62.64;101279.13;5071334;28;20060;-65
2021/01/15 08:43:40;;;;;;;29.50;19.05;;;;;;;4.18;62.38;101277.94;5070551;28;20413;-66
2021/01/15 08:46:14;;;;;;;28.13;19.27;;;;;;;4.21;62.26;101277.47;5070460;28;20055;-66
2021/01/15 08:48:41;;;;;;;26.73;17.42;;;;;;;4.23;61.88;101281.63;5070118;28;20059;-66
2021/01/15 08:51:09;;;;;;;26.13;18.45;;;;;;;4.25;62.21;101286.91;5070056;28;20072;-66
2021/01/15 08:53:43;;;;;;;27.92;18.67;;;;;;;4.27;61.96;101296.59;5069506;28;20052;-66
2021/01/15 08:56:14;;;;;;;26.55;17.67;;;;;;;4.26;62.31;101294.06;5070689;28;20083;-66
2021/01/15 08:58:48;;;;;;;26.92;17.83;;;;;;;4.32;61.72;101297.75;5062590;28;20052;-66
2021/01/15 09:01:29;;;;;;;27.15;18.20;;;;;;;4.32;61.85;101304.09;5071367;28;20048;-66
2021/01/15 09:03:58;;;;;;;26.70;17.48;;;;;;;4.19;62.10;101309.97;5071877;28;20048;-66
2021/01/15 09:06:27;;;;;;;26.50;17.43;;;;;;;4.19;62.15;101318.25;5071133;28;20064;-66
2021/01/15 09:08:57;;;;;;;27.40;17.80;;;;;;;4.13;62.18;101316.47;5070567;28;20478;-66
2021/01/15 09:11:32;;;;;;;26.02;17.80;;;;;;;4.19;62.82;101323.75;5064598;28;20079;-66
2021/01/15 09:13:59;;;;;;;26.13;17.08;;;;;;;4.22;62.68;101331.50;5070920;28;20067;-66
2021/01/15 09:16:28;;;;;;;26.92;17.58;;;;;;;4.19;62.84;101343.06;5071021;28;20496;-66
2021/01/15 09:18:59;;;;;;;28.20;18.50;;;;;;;4.22;62.66;101348.06;5071179;28;20052;-66
2021/01/15 09:21:28;;;;;;;29.17;19.08;;;;;;;4.22;62.08;101348.91;5072178;28;20079;-66
2021/01/15 09:23:55;;;;;;;28.90;17.73;;;;;;;4.25;62.43;101358.59;5068414;28;20440;-66
2021/01/15 09:26:22;;;;;;;27.08;16.65;;;;;;;4.33;62.28;101349.09;5060844;28;20060;-66
2021/01/15 09:28:49;;;;;;;28.30;18.23;;;;;;;4.41;61.69;101356.91;5063856;28;20072;-66
2021/01/15 09:31:18;;;;;;;27.02;17.75;;;;;;;4.41;61.76;101357.78;5068126;28;20048;-66
2021/01/15 09:33:49;;;;;;;30.27;19.23;;;;;;;4.45;61.66;101363.59;5069828;28;20524;-67
2021/01/15 09:36:24;;;;;;;26.23;16.83;;;;;;;4.42;62.04;101366.88;5068623;28;20068;-66
2021/01/15 09:38:53;;;;;;;25.85;16.70;;;;;;;4.51;61.73;101367.28;5069801;28;20064;-66
2021/01/15 09:41:20;;;;;;;33.42;18.20;;;;;;;4.56;61.32;101381.16;5068512;28;20063;-66
2021/01/15 09:43:51;;;;;;;28.95;18.63;;;;;;;4.46;61.27;101379.06;5070440;28;20049;-66
2021/01/15 09:46:25;;;;;;;26.20;17.60;;;;;;;4.50;61.90;101385.75;5068978;28;20044;-66
2021/01/15 09:48:55;;;;;;;26.00;16.92;;;;;;;4.55;61.44;101385.84;5070372;28;20060;-66
2021/01/15 09:51:26;;;;;;;25.75;17.05;;;;;;;4.58;61.63;101382.59;5069619;28;20051;-66
2021/01/15 09:53:53;;;;;;;26.38;17.50;;;;;;;4.66;61.47;101387.69;5068852;28;20056;-66
2021/01/15 09:56:25;;;;;;;27.77;18.77;;;;;;;4.68;61.18;101387.41;5069432;28;20060;-66
2021/01/15 09:58:54;;;;;;;28.92;18.63;;;;;;;4.71;61.66;101383.34;5069930;28;20063;-66
2021/01/15 10:01:21;;;;;;;22.73;15.65;;;;;;;4.78;60.86;101390.31;5068797;28;20052;-66
2021/01/15 10:03:48;;;;;;;26.38;16.63;;;;;;;4.85;60.34;101381.88;5070001;28;20052;-66
2021/01/15 10:06:17;;;;;;;26.88;17.95;;;;;;;4.93;60.23;101391.66;5068898;28;20055;-66
2021/01/15 10:08:45;;;;;;;25.58;17.33;;;;;;;5.00;60.14;101386.78;5070031;28;20124;-66
2021/01/15 10:11:20;;;;;;;24.38;16.42;;;;;;;4.91;59.95;101385.53;5068225;28;20383;-66
2021/01/15 10:13:47;;;;;;;23.70;17.15;;;;;;;4.99;59.80;101391.47;5069530;28;20056;-66
2021/01/15 10:16:14;;;;;;;28.17;17.15;;;;;;;4.97;60.06;101392.81;5068231;28;20490;-66
2021/01/15 10:18:41;;;;;;;22.15;15.98;;;;;;;5.01;59.94;101399.50;5070053;28;20060;-67
2021/01/15 10:21:09;;;;;;;24.00;16.05;;;;;;;5.07;59.52;101387.44;5069643;28;20049;-66
2021/01/15 10:23:37;;;;;;;27.52;17.02;;;;;;;5.12;58.92;101390.25;5067941;28;20049;-67
2021/01/15 10:26:04;;;;;;;22.38;15.25;;;;;;;5.19;58.96;101390.09;5070142;28;20041;-67
2021/01/15 10:28:32;;;;;;;29.33;19.42;;;;;;;5.17;59.25;101393.09;5073561;28;20064;-66
2021/01/15 10:30:59;;;;;;;28.35;18.30;;;;;;;5.17;58.98;101390.34;5074255;28;20517;-66
2021/01/15 10:33:26;;;;;;;28.15;18.27;;;;;;;5.18;59.27;101396.69;5071220;28;20044;-66
2021/01/15 10:35:53;;;;;;;24.27;15.77;;;;;;;5.21;59.19;101390.66;5072789;28;20060;-67
2021/01/15 10:38:22;;;;;;;24.48;16.50;;;;;;;5.26;58.91;101399.00;5073819;28;20429;-67
2021/01/15 10:40:52;;;;;;;25.30;16.90;;;;;;;5.28;58.36;101403.19;5075465;28;20412;-66
2021/01/15 10:43:19;;;;;;;;;;;;;;;5.25;58.53;101398.19;5069211;28;20053;-66
2021/01/15 10:45:48;;;;;;;26.05;16.92;;;;;;;5.22;58.72;101395.91;5074065;28;20471;-66
2021/01/15 10:48:15;;;;;;;21.73;14.25;;;;;;;5.20;58.73;101392.56;5071963;28;20060;-67
2021/01/15 10:50:42;;;;;;;20.80;14.32;;;;;;;5.25;58.82;101391.84;5073429;28;20067;-66
2021/01/15 10:53:09;;;;;;;22.45;14.73;;;;;;;5.34;58.60;101397.75;5073612;28;20051;-67
2021/01/15 10:55:38;;;;;;;20.27;15.13;;;;;;;5.42;58.51;101397.28;5074328;28;20064;-67
2021/01/15 10:58:06;;;;;;;18.88;12.98;;;;;;;5.49;57.79;101400.69;5076443;28;20056;-67
2021/01/15 11:00:35;;;;;;;20.38;13.35;;;;;;;5.53;57.13;101389.97;5074873;28;20047;-67
2021/01/15 11:03:02;;;;;;;23.10;14.63;;;;;;;5.61;57.10;101393.09;5073782;28;20064;-66
2021/01/15 11:05:30;;;;;;;18.83;12.70;;;;;;;5.69;56.92;101389.88;5073753;28;20063;-67
2021/01/15 11:07:57;;;;;;;20.02;14.02;;;;;;;5.66;56.54;101395.09;5073821;28;20057;-67
2021/01/15 11:10:24;;;;;;;20.10;13.10;;;;;;;5.76;56.16;101388.84;5076352;28;20052;-67
2021/01/15 11:12:50;;;;;;;19.05;13.63;;;;;;;5.77;56.07;101390.50;5074280;28;20048;-67
2021/01/15 11:15:18;;;;;;;21.77;13.43;;;;;;;5.78;55.59;101390.25;5077976;28;20072;-66
2021/01/15 11:17:45;;;;;;;22.50;15.63;;;;;;;5.77;55.94;101385.78;5076883;28;20056;-67
2021/01/15 11:20:13;;;;;;;26.33;16.65;;;;;;;5.82;55.83;101394.16;5080157;28;20055;-67
2021/01/15 11:22:41;;;;;;;20.02;13.15;;;;;;;5.86;55.50;101398.06;5070674;28;20049;-67
2021/01/15 11:25:09;;;;;;;17.63;13.35;;;;;;;5.94;55.15;101395.94;5074570;28;20048;-66
2021/01/15 11:27:36;;;;;;;18.35;11.25;;;;;;;5.95;55.07;101395.72;5072061;28;20061;-67
2021/01/15 11:30:04;;;;;;;17.33;11.50;;;;;;;6.06;54.73;101394.69;5063683;28;20432;-67
2021/01/15 11:32:32;;;;;;;18.88;12.77;;;;;;;6.10;54.34;101390.31;5070682;28;20734;-67
2021/01/15 11:34:59;;;;;;;19.10;13.23;;;;;;;6.04;54.63;101391.38;5065764;28;20408;-67